Time;durP1;ratioP1;P1;durP2;ratioP2;P2;SDS_P1;SDS_P2;PMS_P1;PMS_P2;Temp;Humidity;BMP_temperature;BMP_pressure;BME280_temperature;BME280_humidity;BME280_pressure;Samples;Min_cycle;Max_cycle;Signal;HPM_P1;HPM_P2
2023/04/08 00:00:53;;;;;;;49.10;32.22;;;;;;;6.17;68.47;99296.56;4498094;31;33603;-81
2023/04/08 00:03:21;;;;;;;48.38;36.20;;;;;;;6.14;68.37;99286.16;4481327;31;33305;-84
2023/04/08 00:05:48;;;;;;;46.88;31.35;;;;;;;6.19;68.50;99292.34;4498210;31;33542;-84
2023/04/08 00:08:16;;;;;;;49.28;32.88;;;;;;;6.38;67.72;99293.81;4496887;31;33425;-85
2023/04/08 00:10:44;;;;;;;48.15;34.08;;;;;;;6.33;67.85;99291.97;4498070;31;33653;-84
2023/04/08 00:13:12;;;;;;;47.85;34.70;;;;;;;6.44;67.43;99286.25;4492562;31;33239;-83
2023/04/08 00:15:40;;;;;;;48.83;33.53;;;;;;;6.17;68.47;99294.84;4482160;32;34160;-83
2023/04/08 00:18:07;;;;;;;53.13;37.63;;;;;;;5.84;69.60;99292.91;4484570;31;34028;-84
2023/04/08 00:20:36;;;;;;;51.37;34.08;;;;;;;5.69;70.43;99299.25;4496601;31;34414;-84
2023/04/08 00:23:03;;;;;;;51.00;33.95;;;;;;;6.14;68.95;99293.88;4497039;31;33586;-84
2023/04/08 00:25:31;;;;;;;52.05;36.17;;;;;;;6.12;69.04;99298.13;4497634;31;33862;-83
2023/04/08 00:27:59;;;;;;;51.78;33.53;;;;;;;6.06;69.36;99302.25;4497316;31;34096;-84
2023/04/08 00:30:27;;;;;;;53.20;38.38;;;;;;;5.99;69.85;99304.59;4497670;31;33783;-84
2023/04/08 00:32:55;;;;;;;52.75;33.83;;;;;;;5.79;70.63;99297.00;4486665;31;33163;-81
2023/04/08 00:35:23;;;;;;;55.58;34.90;;;;;;;6.07;69.86;99297.97;4482707;31;33735;-82
2023/04/08 00:37:51;;;;;;;56.67;39.40;;;;;;;5.60;71.35;99304.94;4481696;31;34813;-82
2023/04/08 00:40:18;;;;;;;54.67;35.25;;;;;;;5.51;71.36;99294.34;4495743;31;34710;-81
2023/04/08 00:42:46;;;;;;;53.10;35.08;;;;;;;5.44;72.12;99293.25;4495495;31;33851;-82
2023/04/08 00:45:13;;;;;;;56.08;38.63;;;;;;;5.40;72.53;99295.66;4482028;31;33875;-81
2023/04/08 00:47:41;;;;;;;52.55;32.70;;;;;;;5.54;72.06;99300.47;4480000;32;32695;-81
2023/04/08 00:50:09;;;;;;;53.22;35.35;;;;;;;5.58;71.94;99301.44;4483144;31;34012;-82
2023/04/08 00:52:37;;;;;;;54.13;38.42;;;;;;;5.45;72.16;99305.25;4483795;31;34125;-81
2023/04/08 00:55:05;;;;;;;55.75;36.05;;;;;;;5.30;72.47;99305.63;4483913;32;33558;-81
2023/04/08 00:57:33;;;;;;;53.00;33.13;;;;;;;5.67;71.12;99301.75;4482566;32;33832;-82
2023/04/08 01:00:00;;;;;;;48.70;36.25;;;;;;;5.61;71.70;99301.56;4482410;32;33898;-82
2023/04/08 01:02:59;;;;;;;51.97;33.42;;;;;;;5.46;72.12;99304.47;4482186;32;34230;-82
2023/04/08 01:05:38;;;;;;;52.03;36.53;;;;;;;5.70;71.10;99306.13;4483575;32;34058;-81
2023/04/08 01:08:07;;;;;;;49.25;32.50;;;;;;;5.45;72.13;99309.53;4482570;32;34536;-81
2023/04/08 01:10:36;;;;;;;49.80;32.65;;;;;;;5.14;73.11;99298.16;4491470;31;33904;-81
2023/04/08 01:13:08;;;;;;;49.65;31.73;;;;;;;5.61;71.87;99299.84;4482468;32;34550;-82
2023/04/08 01:15:38;;;;;;;47.85;32.35;;;;;;;5.23;73.09;99295.06;4482464;32;34049;-81
2023/04/08 01:18:08;;;;;;;49.03;32.63;;;;;;;5.84;70.82;99303.22;4485802;31;34893;-81
2023/04/08 01:20:36;;;;;;;52.55;32.92;;;;;;;5.79;70.94;99299.59;4483931;31;33656;-81
2023/04/08 01:23:35;;;;;;;47.80;34.15;;;;;;;5.71;70.85;99303.59;4482395;32;33601;-82
2023/04/08 01:26:02;;;;;;;45.72;30.05;;;;;;;5.92;70.24;99302.59;4476466;32;33385;-82
2023/04/08 01:28:30;;;;;;;46.63;30.42;;;;;;;5.50;71.19;99303.75;4478718;31;33761;-82
2023/04/08 01:30:59;;;;;;;48.28;31.40;;;;;;;5.41;71.72;99307.69;4475890;31;34654;-80
2023/04/08 01:33:27;;;;;;;47.00;33.47;;;;;;;5.30;71.87;99291.87;4494578;31;33113;-82
2023/04/08 01:35:56;;;;;;;46.80;29.52;;;;;;;5.12;72.76;99300.69;4482343;31;34773;-82
2023/04/08 01:38:27;;;;;;;48.50;32.67;;;;;;;5.46;71.52;99295.88;4481190;32;34134;-82
2023/04/08 01:40:56;;;;;;;44.38;30.55;;;;;;;5.51;71.34;99302.06;4494704;31;33676;-82
2023/04/08 01:43:23;;;;;;;45.05;30.35;;;;;;;5.17;72.13;99294.84;4497534;31;33156;-82
2023/04/08 01:45:53;;;;;;;46.78;30.15;;;;;;;5.30;72.01;99297.00;4476071;32;33661;-81
2023/04/08 01:48:21;;;;;;;47.78;29.08;;;;;;;5.40;71.75;99296.53;4481701;31;33620;-82
2023/04/08 01:50:50;;;;;;;46.05;33.25;;;;;;;5.43;71.35;99300.91;4471097;31;33814;-81
2023/04/08 01:53:17;;;;;;;49.67;31.27;;;;;;;5.46;71.60;99298.44;4481966;32;34504;-81
2023/04/08 01:55:45;;;;;;;46.72;29.40;;;;;;;5.37;71.84;99292.13;4484964;31;34407;-82
2023/04/08 01:58:18;;;;;;;46.65;33.40;;;;;;;4.93;73.52;99298.25;4482134;32;34697;-82
2023/04/08 02:00:46;;;;;;;50.70;33.47;;;;;;;5.05;73.34;99301.28;4481599;32;34097;-82
2023/04/08 02:03:16;;;;;;;48.87;31.73;;;;;;;5.16;72.81;99298.25;4481126;32;33656;-81
2023/04/08 02:05:45;;;;;;;49.67;35.47;;;;;;;4.92;73.49;99296.50;4481644;32;33709;-82
2023/04/08 02:08:13;;;;;;;48.47;29.90;;;;;;;5.39;72.41;99299.06;4484051;31;34940;-82
2023/04/08 02:10:40;;;;;;;50.60;35.97;;;;;;;5.62;71.13;99293.00;4481582;32;33861;-81
2023/04/08 02:13:08;;;;;;;51.53;32.28;;;;;;;5.67;71.48;99301.75;4481546;32;34467;-82
2023/04/08 02:15:37;;;;;;;53.35;37.00;;;;;;;5.35;73.01;99298.94;4483948;31;33593;-81
2023/04/08 02:18:12;;;;;;;51.17;36.80;;;;;;;5.57;71.95;99299.69;4481551;32;33999;-82
2023/04/08 02:20:44;;;;;;;49.05;33.03;;;;;;;5.65;71.59;99292.25;4481437;32;32013;-82
2023/04/08 02:23:18;;;;;;;51.42;31.33;;;;;;;5.86;70.95;99298.97;4483404;31;33228;-82
2023/04/08 02:25:47;;;;;;;51.80;32.97;;;;;;;5.45;72.29;99299.25;4471622;31;34571;-82
2023/04/08 02:28:17;;;;;;;54.97;37.22;;;;;;;5.41;72.51;99297.41;4482209;31;34176;-82
2023/04/08 02:30:49;;;;;;;50.67;32.17;;;;;;;5.16;73.55;99300.81;4482011;31;33462;-80
2023/04/08 02:33:19;;;;;;;55.72;34.50;;;;;;;5.42;72.42;99294.00;4481833;31;34280;-81
2023/04/08 02:35:48;;;;;;;56.05;38.00;;;;;;;5.45;72.84;99294.09;4481414;31;34763;-82
2023/04/08 02:38:16;;;;;;;52.62;34.97;;;;;;;5.51;72.67;99290.06;4481796;32;34184;-81
2023/04/08 02:40:43;;;;;;;53.70;34.17;;;;;;;5.11;73.40;99290.34;4492194;31;34655;-82
2023/04/08 02:43:11;;;;;;;49.67;32.97;;;;;;;5.44;72.97;99285.53;4484695;31;32976;-82
2023/04/08 02:45:42;;;;;;;56.75;39.20;;;;;;;5.65;72.05;99290.56;4483981;31;34150;-82
2023/04/08 02:48:10;;;;;;;56.30;34.20;;;;;;;5.26;73.71;99293.44;4497625;31;34353;-82
2023/04/08 02:50:38;;;;;;;53.42;34.08;;;;;;;5.59;72.48;99288.62;4494273;31;33502;-82
2023/04/08 02:53:07;;;;;;;56.22;38.40;;;;;;;5.68;72.26;99293.19;4491055;31;33527;-81
2023/04/08 02:55:35;;;;;;;51.72;32.30;;;;;;;5.84;71.70;99284.31;4481256;32;33571;-82
2023/04/08 02:58:03;;;;;;;52.70;36.78;;;;;;;5.53;72.36;99292.66;4494534;31;34162;-82
2023/04/08 03:00:30;;;;;;;50.60;32.85;;;;;;;5.44;72.95;99297.50;4484400;31;33754;-83
2023/04/08 03:02:58;;;;;;;47.80;30.77;;;;;;;5.59;72.31;99292.91;4483687;31;34613;-82
2023/04/08 03:05:26;;;;;;;48.33;31.58;;;;;;;6.07;71.03;99292.84;4483908;31;34629;-82
2023/04/08 03:07:54;;;;;;;55.10;35.85;;;;;;;5.81;71.36;99290.22;4483857;31;33718;-81
2023/04/08 03:10:22;;;;;;;48.90;35.60;;;;;;;5.48;72.61;99294.22;4494482;31;34018;-80
2023/04/08 03:12:49;;;;;;;50.08;31.42;;;;;;;5.48;72.51;99296.78;4483500;31;34027;-81
2023/04/08 03:15:17;;;;;;;52.90;35.28;;;;;;;5.67;71.86;99298.31;4490370;31;33612;-82
2023/04/08 03:17:44;;;;;;;48.80;31.40;;;;;;;5.52;72.29;99293.50;4481276;32;34314;-82
2023/04/08 03:20:12;;;;;;;56.25;36.20;;;;;;;5.92;71.20;99302.59;4478630;31;33790;-82
2023/04/08 03:22:39;;;;;;;50.85;32.25;;;;;;;6.13;70.30;99294.72;4496701;31;32408;-82
2023/04/08 03:25:08;;;;;;;51.97;36.08;;;;;;;5.77;71.67;99308.97;4482583;31;34721;-82
2023/04/08 03:27:35;;;;;;;53.92;36.95;;;;;;;5.53;72.55;99297.81;4491634;31;33920;-81
2023/04/08 03:30:03;;;;;;;49.55;32.10;;;;;;;5.20;73.51;99297.53;4483696;31;33514;-82
2023/04/08 03:32:31;;;;;;;48.63;31.23;;;;;;;5.52;72.55;99298.66;4483583;31;34222;-81
2023/04/08 03:34:59;;;;;;;51.58;31.50;;;;;;;5.41;73.24;99307.69;4481090;31;33549;-81
2023/04/08 03:37:26;;;;;;;49.90;34.88;;;;;;;5.66;72.34;99306.84;4481098;31;36952;-80
2023/04/08 03:39:55;;;;;;;53.45;34.80;;;;;;;5.49;72.15;99307.16;4483302;31;34449;-82
2023/04/08 03:42:22;;;;;;;46.17;31.30;;;;;;;5.70;71.99;99314.72;4483526;31;33680;-82
2023/04/08 03:44:50;;;;;;;50.60;33.78;;;;;;;5.78;71.51;99310.72;4490169;31;33489;-82
2023/04/08 03:47:17;;;;;;;46.72;32.03;;;;;;;5.81;71.93;99315.97;4482935;31;34243;-80
2023/04/08 03:49:45;;;;;;;48.53;31.37;;;;;;;5.67;71.89;99317.19;4496299;31;33658;-82
2023/04/08 03:52:13;;;;;;;50.00;34.05;;;;;;;5.90;71.29;99314.50;4496965;31;33577;-81
2023/04/08 03:54:40;;;;;;;50.80;30.50;;;;;;;5.79;71.53;99319.28;4483843;31;34762;-81
2023/04/08 03:57:08;;;;;;;50.75;34.00;;;;;;;5.99;71.11;99323.47;4483384;31;34446;-80
2023/04/08 03:59:36;;;;;;;50.35;32.20;;;;;;;5.73;71.50;99322.53;4495775;31;33605;-81
2023/04/08 04:02:04;;;;;;;48.67;34.35;;;;;;;5.80;71.42;99327.09;4495265;31;32928;-81
2023/04/08 04:04:32;;;;;;;49.78;34.13;;;;;;;5.76;71.36;99332.94;4496446;31;34647;-81
2023/04/08 04:07:00;;;;;;;46.42;30.50;;;;;;;5.54;72.14;99331.31;4489588;31;34058;-82
2023/04/08 04:09:27;;;;;;;48.22;30.33;;;;;;;5.94;71.14;99337.84;4484963;31;33456;-81
2023/04/08 04:11:55;;;;;;;48.72;33.72;;;;;;;5.73;72.07;99332.84;4492867;31;33186;-82
2023/04/08 04:14:22;;;;;;;44.47;29.42;;;;;;;5.64;72.35;99345.34;4485197;31;33756;-82
2023/04/08 04:16:49;;;;;;;49.28;30.27;;;;;;;5.36;72.85;99341.81;4482875;31;34096;-81
2023/04/08 04:19:17;;;;;;;46.67;33.40;;;;;;;5.51;72.67;99335.47;4469543;31;34088;-82
2023/04/08 04:22:04;;;;;;;48.50;30.90;;;;;;;5.51;72.51;99345.75;4481010;32;33562;-82
2023/04/08 04:24:32;;;;;;;44.25;28.73;;;;;;;5.61;72.50;99342.72;4482623;32;33264;-79
2023/04/08 04:26:59;;;;;;;47.17;28.60;;;;;;;5.40;72.93;99345.37;4483196;32;35034;-82
2023/04/08 04:29:30;;;;;;;49.67;30.88;;;;;;;5.33;73.36;99345.97;4483963;32;33298;-81
2023/04/08 04:31:58;;;;;;;43.53;27.77;;;;;;;5.24;73.71;99346.53;4484074;31;33505;-81
2023/04/08 04:34:25;;;;;;;48.85;33.30;;;;;;;5.16;74.09;99349.62;4498420;31;33944;-82
2023/04/08 04:36:52;;;;;;;46.15;28.70;;;;;;;4.95;75.03;99353.13;4499043;31;33758;-82
2023/04/08 04:39:20;;;;;;;47.80;28.45;;;;;;;5.10;74.63;99353.72;4496922;31;33849;-79
2023/04/08 04:41:48;;;;;;;46.03;29.20;;;;;;;4.84;75.30;99356.97;4497729;31;33510;-82
2023/04/08 04:44:15;;;;;;;53.03;32.03;;;;;;;4.71;76.10;99353.06;4494854;31;33939;-82
2023/04/08 04:46:43;;;;;;;49.22;31.70;;;;;;;4.79;76.10;99359.38;4484582;31;34810;-80
2023/04/08 04:49:10;;;;;;;52.33;32.30;;;;;;;5.08;75.38;99354.50;4481951;32;33816;-82
2023/04/08 04:51:38;;;;;;;50.55;29.37;;;;;;;4.95;75.73;99355.69;4484538;31;33665;-82
2023/04/08 04:54:06;;;;;;;52.22;30.15;;;;;;;4.72;76.53;99354.81;4482228;32;33811;-81
2023/04/08 04:56:33;;;;;;;48.00;29.27;;;;;;;5.01;76.04;99358.50;4490920;31;34594;-81
2023/04/08 04:59:01;;;;;;;47.80;30.62;;;;;;;5.13;75.17;99356.41;4491123;31;34389;-82
2023/04/08 05:01:28;;;;;;;48.03;27.65;;;;;;;5.03;75.42;99350.84;4483960;32;33975;-82
2023/04/08 05:03:56;;;;;;;49.83;31.10;;;;;;;5.30;74.19;99351.00;4484447;31;33716;-81
2023/04/08 05:06:25;;;;;;;52.80;35.05;;;;;;;5.10;74.78;99357.97;4498646;31;34532;-82
2023/04/08 05:08:52;;;;;;;49.42;30.27;;;;;;;5.23;74.38;99357.62;4483168;31;33935;-79
2023/04/08 05:11:23;;;;;;;49.20;28.98;;;;;;;5.27;74.76;99362.06;4494839;31;33513;-81
2023/04/08 05:13:50;;;;;;;50.75;31.30;;;;;;;5.45;74.17;99360.97;4498068;31;33498;-82
2023/04/08 05:16:18;;;;;;;49.17;28.98;;;;;;;5.08;75.20;99362.19;4497549;31;34147;-81
2023/04/08 05:18:45;;;;;;;51.58;34.80;;;;;;;5.37;74.16;99358.97;4484201;31;34482;-81
2023/04/08 05:21:12;;;;;;;49.95;30.10;;;;;;;5.10;75.69;99363.97;4498009;31;34508;-82
2023/04/08 05:23:40;;;;;;;47.85;32.05;;;;;;;5.36;74.64;99364.09;4494816;31;33787;-81
2023/04/08 05:26:07;;;;;;;47.10;29.80;;;;;;;5.15;75.20;99366.72;4483856;31;34172;-81
2023/04/08 05:28:35;;;;;;;48.53;28.95;;;;;;;4.94;75.95;99376.22;4488018;31;33562;-82
2023/04/08 05:31:03;;;;;;;49.13;30.92;;;;;;;5.04;75.38;99373.19;4497949;31;34248;-82
2023/04/08 05:33:30;;;;;;;46.15;26.95;;;;;;;4.98;75.43;99380.66;4497988;31;33969;-81
2023/04/08 05:35:58;;;;;;;47.33;30.27;;;;;;;4.71;76.93;99390.72;4497387;31;33791;-82
2023/04/08 05:38:26;;;;;;;47.33;28.42;;;;;;;4.97;75.83;99387.47;4484433;31;33710;-82
2023/04/08 05:40:53;;;;;;;47.17;28.05;;;;;;;5.21;74.83;99387.53;4486330;31;33657;-82
2023/04/08 05:43:20;;;;;;;42.97;27.52;;;;;;;5.35;74.47;99388.91;4481008;31;33116;-82
2023/04/08 05:45:48;;;;;;;40.42;25.60;;;;;;;5.23;74.52;99391.03;4486978;31;34023;-81
2023/04/08 05:48:15;;;;;;;40.47;26.25;;;;;;;5.52;73.63;99388.66;4484101;31;34482;-81
2023/04/08 05:50:43;;;;;;;38.60;25.90;;;;;;;5.71;72.87;99391.06;4482919;31;33320;-81
2023/04/08 05:53:10;;;;;;;38.10;24.67;;;;;;;5.50;73.07;99388.59;4496883;31;33575;-84
2023/04/08 05:55:38;;;;;;;37.92;22.50;;;;;;;5.83;72.58;99395.75;4483106;32;34923;-84
2023/04/08 05:58:06;;;;;;;38.60;24.80;;;;;;;5.69;72.36;99391.84;4482970;32;33524;-84
2023/04/08 06:00:34;;;;;;;39.97;27.05;;;;;;;4.90;75.12;99410.31;4482743;32;33593;-83
2023/04/08 06:03:02;;;;;;;38.70;23.75;;;;;;;5.19;74.75;99401.13;4482312;32;33722;-84
2023/04/08 06:05:30;;;;;;;35.58;22.65;;;;;;;5.29;74.41;99393.81;4482767;32;34632;-80
2023/04/08 06:07:58;;;;;;;36.22;25.55;;;;;;;5.23;74.79;99398.75;4482787;32;33471;-82
2023/04/08 06:10:25;;;;;;;34.20;23.50;;;;;;;5.52;73.36;99398.94;4482169;31;33802;-82
2023/04/08 06:12:53;;;;;;;34.55;24.35;;;;;;;5.53;73.57;99395.53;4472465;32;32630;-82
2023/04/08 06:15:21;;;;;;;35.38;21.85;;;;;;;5.35;73.49;99400.91;4484869;31;34797;-82
2023/04/08 06:17:48;;;;;;;34.65;24.23;;;;;;;5.15;74.63;99407.84;4497458;31;34488;-81
2023/04/08 06:20:16;;;;;;;34.63;22.52;;;;;;;5.35;74.23;99401.78;4497663;31;33382;-82
2023/04/08 06:22:43;;;;;;;31.70;22.62;;;;;;;5.36;74.18;99408.66;4490340;31;34352;-82
2023/04/08 06:25:11;;;;;;;33.40;22.58;;;;;;;5.05;75.24;99410.91;4497467;31;33703;-82
2023/04/08 06:27:38;;;;;;;32.60;21.90;;;;;;;5.09;75.35;99418.78;4495749;31;34631;-81
2023/04/08 06:30:06;;;;;;;34.97;23.45;;;;;;;4.97;75.78;99418.31;4493167;31;33508;-84
2023/04/08 06:32:34;;;;;;;34.83;22.35;;;;;;;4.93;75.88;99420.72;4495293;31;34063;-84
2023/04/08 06:35:02;;;;;;;32.35;21.33;;;;;;;4.97;75.44;99427.72;4491101;31;34367;-84
2023/04/08 06:37:29;;;;;;;35.05;26.05;;;;;;;4.82;75.89;99423.72;4484132;31;33505;-84
2023/04/08 06:39:57;;;;;;;33.65;21.30;;;;;;;4.76;76.38;99423.47;4483764;31;33428;-84
2023/04/08 06:42:24;;;;;;;30.73;19.67;;;;;;;4.72;76.50;99424.16;4494000;31;33696;-82
2023/04/08 06:44:52;;;;;;;34.28;21.75;;;;;;;4.61;76.87;99421.16;4488609;31;33702;-83
2023/04/08 06:47:20;;;;;;;30.50;20.08;;;;;;;4.58;77.50;99433.00;4486301;31;33511;-84
2023/04/08 06:49:47;;;;;;;30.12;19.40;;;;;;;4.79;76.65;99423.59;4484143;31;33380;-84
2023/04/08 06:52:14;;;;;;;32.15;21.45;;;;;;;4.76;76.79;99432.88;4491281;31;34586;-84
2023/04/08 06:54:42;;;;;;;31.98;20.15;;;;;;;5.11;75.60;99427.44;4497008;31;34272;-84
2023/04/08 06:57:10;;;;;;;29.60;18.95;;;;;;;5.23;75.06;99429.59;4496442;31;33565;-84
2023/04/08 06:59:37;;;;;;;33.47;22.08;;;;;;;5.04;75.45;99437.41;4484256;31;33751;-83
2023/04/08 07:02:05;;;;;;;32.70;21.30;;;;;;;5.06;75.51;99430.63;4484862;31;34780;-84
2023/04/08 07:04:33;;;;;;;33.13;20.83;;;;;;;4.68;76.91;99436.81;4495646;31;34030;-83
2023/04/08 07:07:00;;;;;;;32.22;21.27;;;;;;;4.84;76.72;99436.63;4495679;31;33509;-84
2023/04/08 07:09:28;;;;;;;34.33;22.05;;;;;;;4.47;77.87;99439.38;4498579;31;34361;-83
2023/04/08 07:11:56;;;;;;;32.90;23.00;;;;;;;4.82;76.68;99439.13;4481724;31;33628;-83
2023/04/08 07:14:23;;;;;;;32.88;22.40;;;;;;;4.86;76.47;99441.00;4497395;31;34243;-83
2023/04/08 07:16:51;;;;;;;35.33;20.62;;;;;;;5.08;76.15;99447.88;4482521;32;33919;-84
2023/04/08 07:19:19;;;;;;;31.55;20.75;;;;;;;4.74;76.47;99444.78;4483129;32;33450;-83
2023/04/08 07:21:47;;;;;;;31.52;20.92;;;;;;;4.86;76.57;99445.28;4482154;32;33671;-83
2023/04/08 07:24:15;;;;;;;33.28;20.70;;;;;;;4.51;77.29;99451.53;4482797;32;34177;-83
2023/04/08 07:26:42;;;;;;;33.67;21.95;;;;;;;4.74;76.85;99461.06;4482212;32;34089;-83
2023/04/08 07:29:10;;;;;;;33.88;21.60;;;;;;;4.73;76.34;99456.72;4481208;32;33012;-82
2023/04/08 07:31:37;;;;;;;37.22;23.33;;;;;;;4.52;77.30;99461.00;4482307;32;34070;-84
2023/04/08 07:34:05;;;;;;;38.28;24.95;;;;;;;4.80;76.67;99455.28;4482043;32;34271;-84
2023/04/08 07:36:32;;;;;;;33.03;21.52;;;;;;;4.87;76.22;99465.88;4481711;32;34070;-81
2023/04/08 07:39:00;;;;;;;31.17;21.15;;;;;;;4.74;76.06;99463.62;4483296;31;34195;-82
2023/04/08 07:41:27;;;;;;;26.67;19.27;;;;;;;4.92;75.98;99470.31;4483220;31;33172;-82
2023/04/08 07:43:55;;;;;;;30.20;19.80;;;;;;;5.05;75.23;99467.44;4489720;31;34932;-80
2023/04/08 07:46:22;;;;;;;28.60;19.33;;;;;;;5.08;75.14;99481.28;4491141;31;33856;-81
2023/04/08 07:48:50;;;;;;;26.67;18.42;;;;;;;5.08;74.88;99478.72;4488537;31;33567;-82
2023/04/08 07:51:18;;;;;;;24.40;18.02;;;;;;;5.55;73.54;99484.78;4484163;31;33907;-82
2023/04/08 07:53:47;;;;;;;28.25;20.70;;;;;;;5.20;75.04;99483.44;4487135;31;34270;-82
2023/04/08 07:56:17;;;;;;;29.02;20.58;;;;;;;4.94;76.40;99484.13;4480617;32;32636;-82
2023/04/08 07:58:45;;;;;;;25.35;17.45;;;;;;;5.14;75.37;99483.19;4483927;31;33387;-82
2023/04/08 08:01:18;;;;;;;24.42;17.15;;;;;;;5.48;74.55;99490.53;4480356;32;34310;-82
2023/04/08 08:03:47;;;;;;;25.85;18.73;;;;;;;5.09;75.15;99484.72;4491761;31;34159;-82
2023/04/08 08:06:15;;;;;;;28.23;17.95;;;;;;;5.68;73.74;99490.37;4479519;31;35311;-82
2023/04/08 08:08:43;;;;;;;27.80;19.77;;;;;;;5.15;74.97;99490.09;4483868;31;32661;-83
2023/04/08 08:11:11;;;;;;;28.08;19.30;;;;;;;5.15;75.68;99494.34;4483128;31;33973;-83
2023/04/08 08:13:38;;;;;;;27.58;17.87;;;;;;;5.22;75.95;99492.06;4496368;31;34967;-83
2023/04/08 08:16:07;;;;;;;24.35;17.73;;;;;;;4.78;76.67;99488.63;4493366;31;33838;-80
2023/04/08 08:18:36;;;;;;;23.27;16.58;;;;;;;5.27;75.48;99482.00;4488375;31;32010;-80
2023/04/08 08:21:05;;;;;;;31.52;20.15;;;;;;;5.28;75.11;99487.19;4485110;31;33592;-81
2023/04/08 08:23:32;;;;;;;28.42;19.10;;;;;;;5.57;74.23;99490.00;4491185;31;34100;-81
2023/04/08 08:26:01;;;;;;;26.85;18.65;;;;;;;5.25;76.14;99494.78;4489500;31;34567;-80
2023/04/08 08:28:28;;;;;;;24.33;17.65;;;;;;;5.51;74.62;99500.06;4473167;31;33433;-82
2023/04/08 08:30:56;;;;;;;25.27;18.20;;;;;;;5.62;74.34;99503.91;4497911;31;33629;-81
2023/04/08 08:33:26;;;;;;;27.30;19.00;;;;;;;5.76;74.13;99500.16;4497199;31;34835;-83
2023/04/08 08:35:54;;;;;;;23.58;17.42;;;;;;;5.35;76.14;99504.59;4497460;31;34220;-82
2023/04/08 08:38:21;;;;;;;22.65;17.23;;;;;;;5.59;74.40;99504.66;4483332;31;33460;-82
2023/04/08 08:40:57;;;;;;;25.83;19.33;;;;;;;5.56;74.15;99507.13;4487404;31;33658;-83
2023/04/08 08:43:25;;;;;;;25.75;17.95;;;;;;;5.39;75.67;99510.75;4483092;31;34257;-82
2023/04/08 08:45:53;;;;;;;23.08;18.15;;;;;;;5.30;75.45;99506.13;4497360;31;34532;-82
2023/04/08 08:48:20;;;;;;;26.90;17.35;;;;;;;5.14;75.67;99519.19;4482535;31;33841;-81
2023/04/08 08:50:48;;;;;;;22.65;15.55;;;;;;;5.61;74.97;99512.44;4479931;32;33409;-83
2023/04/08 08:53:16;;;;;;;25.45;18.55;;;;;;;5.52;74.55;99519.81;4480360;32;33760;-83
2023/04/08 08:55:43;;;;;;;25.48;15.65;;;;;;;5.47;75.70;99522.19;4481449;32;34463;-83
2023/04/08 08:58:31;;;;;;;25.25;16.37;;;;;;;5.55;75.00;99523.38;4481645;31;33397;-82
2023/04/08 09:00:59;;;;;;;22.00;16.48;;;;;;;5.21;75.89;99521.19;4496991;31;34869;-83
2023/04/08 09:03:27;;;;;;;22.80;17.48;;;;;;;5.27;75.36;99523.13;4497052;31;34766;-83
2023/04/08 09:05:57;;;;;;;23.23;15.00;;;;;;;5.52;75.03;99527.50;4494678;31;33623;-83
2023/04/08 09:08:35;;;;;;;24.58;17.42;;;;;;;5.48;74.89;99536.81;4481575;31;35024;-83
2023/04/08 09:11:10;;;;;;;23.65;16.75;;;;;;;5.76;74.47;99533.63;4480294;32;33760;-83
2023/04/08 09:13:37;;;;;;;24.35;17.33;;;;;;;6.03;73.46;99528.63;4483671;32;33837;-83
2023/04/08 09:16:16;;;;;;;24.27;17.35;;;;;;;5.90;73.98;99531.53;4483916;32;34316;-83
2023/04/08 09:18:46;;;;;;;23.15;16.98;;;;;;;5.81;75.08;99537.22;4483711;32;33526;-83
2023/04/08 09:21:15;;;;;;;59.65;35.85;;;;;;;6.24;73.21;99535.37;4484736;31;34830;-83
2023/04/08 09:23:45;;;;;;;49.10;32.03;;;;;;;5.90;73.79;99540.94;4485272;31;34005;-84
2023/04/08 09:26:15;;;;;;;26.15;17.90;;;;;;;5.61;74.79;99546.75;4484367;31;33910;-83
2023/04/08 09:28:56;;;;;;;24.00;16.77;;;;;;;5.32;74.32;99547.31;4498954;31;33311;-83
2023/04/08 09:31:26;;;;;;;26.45;19.33;;;;;;;5.43;74.90;99546.03;4483358;32;33901;-83
2023/04/08 09:33:58;;;;;;;23.17;16.60;;;;;;;5.66;73.76;99546.94;4482330;32;34024;-83
2023/04/08 09:36:26;;;;;;;26.48;17.83;;;;;;;5.15;75.38;99556.03;4481908;31;33934;-83
2023/04/08 09:38:55;;;;;;;24.75;18.98;;;;;;;5.41;75.58;99550.22;4482265;32;33162;-83
2023/04/08 09:41:23;;;;;;;23.42;17.50;;;;;;;5.42;75.73;99551.09;4487352;31;34724;-83
2023/04/08 09:43:55;;;;;;;24.42;17.10;;;;;;;5.23;76.41;99555.53;4485078;31;33669;-83
2023/04/08 09:46:32;;;;;;;24.42;18.30;;;;;;;5.42;75.67;99552.00;4488990;31;33747;-82
2023/04/08 09:48:59;;;;;;;25.37;17.45;;;;;;;5.48;75.55;99548.78;4499390;31;33448;-83
2023/04/08 09:51:33;;;;;;;24.60;16.67;;;;;;;5.47;75.65;99558.19;4499166;31;33776;-82
2023/04/08 09:54:02;;;;;;;27.75;18.77;;;;;;;5.56;75.01;99552.53;4485102;31;34946;-83
2023/04/08 09:56:37;;;;;;;34.20;22.50;;;;;;;5.58;74.93;99556.94;4484551;31;34539;-83
2023/04/08 09:59:11;;;;;;;36.70;25.23;;;;;;;5.82;74.97;99558.69;4483934;31;33606;-83
2023/04/08 10:01:47;;;;;;;39.25;24.48;;;;;;;5.57;75.42;99554.31;4483626;32;34632;-83
2023/04/08 10:04:18;;;;;;;41.03;30.17;;;;;;;5.74;75.08;99555.81;4483161;32;34107;-83
2023/04/08 10:06:53;;;;;;;35.88;26.25;;;;;;;5.78;74.75;99562.81;4494943;31;33155;-83
2023/04/08 10:09:21;;;;;;;35.03;26.33;;;;;;;5.77;74.93;99561.09;4498908;31;33418;-83
2023/04/08 10:11:49;;;;;;;33.33;26.08;;;;;;;5.73;74.18;99568.63;4497734;31;34621;-83
2023/04/08 10:14:17;;;;;;;31.70;21.98;;;;;;;5.96;73.36;99559.25;4498851;31;33762;-83
2023/04/08 10:16:44;;;;;;;31.37;22.83;;;;;;;5.60;73.42;99570.72;4485912;31;33756;-83
2023/04/08 10:19:40;;;;;;;37.97;27.33;;;;;;;5.64;73.03;99566.56;4483170;32;34294;-83
2023/04/08 10:22:47;;;;;;;32.05;25.27;;;;;;;5.54;73.61;99561.91;4498093;31;34470;-83
2023/04/08 10:25:18;;;;;;;33.05;22.95;;;;;;;5.62;73.59;99569.09;4475261;31;34190;-83
2023/04/08 10:27:46;;;;;;;29.98;21.12;;;;;;;5.58;74.09;99563.78;4498760;31;34598;-83
2023/04/08 10:30:32;;;;;;;30.70;22.00;;;;;;;5.27;74.43;99569.41;4495502;31;33427;-83
2023/04/08 10:33:00;;;;;;;33.65;25.12;;;;;;;5.42;74.52;99561.41;4490666;31;34506;-83
2023/04/08 10:35:31;;;;;;;35.60;24.83;;;;;;;5.68;74.00;99563.28;4484649;31;33439;-83
2023/04/08 10:38:00;;;;;;;58.05;40.20;;;;;;;5.45;74.49;99570.09;4495801;31;33958;-83
2023/04/08 10:40:37;;;;;;;33.92;26.40;;;;;;;5.44;74.99;99565.78;4498763;31;33411;-83
2023/04/08 10:43:06;;;;;;;33.67;26.12;;;;;;;5.82;73.02;99564.69;4484715;31;33549;-82
2023/04/08 10:45:34;;;;;;;26.33;19.35;;;;;;;5.67;73.73;99569.25;4498891;31;34304;-83
2023/04/08 10:48:30;;;;;;;29.98;23.67;;;;;;;5.43;73.97;99569.19;4494650;31;34524;-83
2023/04/08 10:51:05;;;;;;;30.52;22.13;;;;;;;5.56;74.43;99566.25;4467691;31;33478;-83
2023/04/08 10:53:40;;;;;;;27.87;22.75;;;;;;;5.34;75.22;99567.13;4484721;31;33982;-83
2023/04/08 10:56:14;;;;;;;29.20;21.23;;;;;;;5.47;75.22;99559.91;4498823;31;33855;-83
2023/04/08 10:58:49;;;;;;;29.20;22.35;;;;;;;5.72;75.22;99570.34;4481387;32;34117;-83
2023/04/08 11:01:17;;;;;;;26.33;21.70;;;;;;;6.08;74.24;99568.28;4482034;32;33719;-83
2023/04/08 11:03:45;;;;;;;30.10;22.70;;;;;;;5.67;74.14;99563.25;4495165;31;34145;-83
2023/04/08 11:06:13;;;;;;;27.55;21.55;;;;;;;6.10;73.95;99570.94;4498568;31;35100;-83
2023/04/08 11:08:41;;;;;;;31.27;23.08;;;;;;;5.86;74.04;99561.41;4488501;31;34514;-81
2023/04/08 11:11:09;;;;;;;31.70;25.45;;;;;;;5.80;74.33;99568.06;4485709;31;31823;-81
2023/04/08 11:13:44;;;;;;;29.98;23.65;;;;;;;5.85;73.65;99579.38;4484016;31;33471;-83
2023/04/08 11:16:21;;;;;;;28.62;21.87;;;;;;;5.86;73.21;99575.97;4469979;31;33345;-83
2023/04/08 11:18:49;;;;;;;32.58;22.40;;;;;;;5.27;74.35;99566.84;4480971;32;34107;-81
2023/04/08 11:21:18;;;;;;;30.90;24.92;;;;;;;5.29;74.66;99571.19;4481608;32;32709;-81
2023/04/08 11:23:49;;;;;;;29.75;21.77;;;;;;;5.81;73.99;99570.66;4484436;31;33974;-83
2023/04/08 11:26:21;;;;;;;29.60;21.52;;;;;;;5.93;74.00;99580.59;4489150;31;35063;-83
2023/04/08 11:28:50;;;;;;;31.55;23.52;;;;;;;5.87;73.76;99577.72;4483946;31;34203;-83
2023/04/08 11:31:19;;;;;;;28.33;23.70;;;;;;;6.24;72.45;99563.69;4496789;31;33068;-84
2023/04/08 11:33:52;;;;;;;28.42;22.05;;;;;;;6.18;72.87;99572.09;4481891;32;34078;-84